Time;durP1;ratioP1;P1;durP2;ratioP2;P2;SDS_P1;SDS_P2;PMS_P1;PMS_P2;Temp;Humidity;BMP_temperature;BMP_pressure;BME280_temperature;BME280_humidity;BME280_pressure;Samples;Min_cycle;Max_cycle;Signal;HPM_P1;HPM_P2
2023/12/18 00:00:04;;;;;;;131.88;58.40;;;;;;;;;;6169587;23;20005;-93
2023/12/18 00:02:30;;;;;;;113.93;53.35;;;;;;;;;;6162308;23;20001;-92
2023/12/18 00:04:56;;;;;;;115.78;53.25;;;;;;;;;;6162556;23;20181;-92
2023/12/18 00:07:22;;;;;;;117.65;54.55;;;;;;;;;;6164355;23;20017;-93
2023/12/18 00:09:54;;;;;;;140.40;59.95;;;;;;;;;;6163495;23;20461;-94
2023/12/18 00:12:58;;;;;;;149.25;61.72;;;;;;;;;;6166518;23;19996;-94
2023/12/18 00:15:24;;;;;;;138.38;57.67;;;;;;;;;;6164322;23;20073;-93
2023/12/18 00:17:53;;;;;;;133.23;60.35;;;;;;;;;;6167915;23;20335;-93
2023/12/18 00:20:46;;;;;;;141.48;61.13;;;;;;;;;;6167341;23;20013;-93
2023/12/18 00:23:12;;;;;;;140.35;56.92;;;;;;;;;;6132847;23;20001;-93
2023/12/18 00:25:38;;;;;;;114.60;51.90;;;;;;;;;;6164310;23;20064;-93
2023/12/18 00:28:04;;;;;;;109.10;47.00;;;;;;;;;;6163326;23;20011;-93
2023/12/18 00:30:31;;;;;;;95.40;42.80;;;;;;;;;;6163421;23;20001;-92
2023/12/18 00:32:57;;;;;;;89.57;43.05;;;;;;;;;;6161984;23;20004;-92
2023/12/18 00:35:23;;;;;;;89.85;41.33;;;;;;;;;;6162767;23;20001;-92
2023/12/18 00:37:50;;;;;;;97.43;42.45;;;;;;;;;;6162896;23;20012;-93
2023/12/18 00:40:16;;;;;;;91.35;41.80;;;;;;;;;;6162307;23;20009;-94
2023/12/18 00:42:42;;;;;;;98.57;43.17;;;;;;;;;;6162314;23;20008;-93
2023/12/18 00:45:12;;;;;;;74.20;38.78;;;;;;;;;;6162077;23;20427;-93
2023/12/18 00:47:39;;;;;;;91.22;39.67;;;;;;;;;;6191247;23;20013;-91
2023/12/18 00:50:07;;;;;;;90.72;40.00;;;;;;;;;;6181504;23;19993;-90
2023/12/18 00:52:34;;;;;;;76.88;38.45;;;;;;;;;;6167515;23;20040;-92
2023/12/18 00:55:00;;;;;;;97.65;41.00;;;;;;;;;;6192276;23;20500;-92
2023/12/18 00:57:26;;;;;;;100.55;41.95;;;;;;;;;;6198261;23;19995;-92
2023/12/18 00:59:52;;;;;;;88.30;40.85;;;;;;;;;;6208523;23;20014;-91
2023/12/18 01:02:20;;;;;;;89.50;41.13;;;;;;;;;;6201277;23;20393;-93
2023/12/18 01:04:46;;;;;;;68.63;36.58;;;;;;;;;;6201057;23;20423;-91
2023/12/18 01:07:13;;;;;;;82.10;40.13;;;;;;;;;;6198865;23;20063;-95
2023/12/18 01:10:02;;;;;;;104.65;44.95;;;;;;;;;;6192037;23;20074;-96
2023/12/18 01:12:28;;;;;;;102.38;42.63;;;;;;;;;;6191149;23;20506;-94
2023/12/18 01:14:56;;;;;;;69.50;36.17;;;;;;;;;;6217840;23;20004;-96
2023/12/18 01:17:22;;;;;;;93.28;44.28;;;;;;;;;;6191404;23;20032;-94
2023/12/18 01:19:48;;;;;;;101.15;46.45;;;;;;;;;;6191576;23;20091;-93
2023/12/18 01:22:14;;;;;;;96.30;44.72;;;;;;;;;;6193440;23;20005;-94
2023/12/18 01:24:40;;;;;;;79.97;39.28;;;;;;;;;;6200927;23;20020;-91
2023/12/18 01:27:06;;;;;;;100.18;44.95;;;;;;;;;;6219023;23;20005;-89
2023/12/18 01:29:32;;;;;;;95.30;44.03;;;;;;;;;;6207131;23;20012;-93
2023/12/18 01:31:58;;;;;;;95.75;41.67;;;;;;;;;;6200484;23;20016;-93
2023/12/18 01:34:25;;;;;;;103.25;42.25;;;;;;;;;;6193825;23;20004;-96
2023/12/18 01:36:51;;;;;;;96.65;42.35;;;;;;;;;;6169425;23;20013;-93
2023/12/18 01:39:18;;;;;;;96.72;39.75;;;;;;;;;;6219908;23;20001;-93
2023/12/18 01:41:44;;;;;;;86.35;38.47;;;;;;;;;;6196661;23;20434;-92
2023/12/18 01:44:10;;;;;;;85.90;37.35;;;;;;;;;;6198126;23;20047;-93
2023/12/18 01:46:37;;;;;;;74.95;35.17;;;;;;;;;;6194805;23;20013;-96
2023/12/18 01:49:03;;;;;;;86.53;38.58;;;;;;;;;;6193837;23;20080;-94
2023/12/18 01:51:30;;;;;;;89.53;37.75;;;;;;;;;;6219755;23;20009;-94
2023/12/18 01:53:57;;;;;;;91.50;36.40;;;;;;;;;;6192914;23;20071;-92
2023/12/18 01:56:25;;;;;;;74.53;33.28;;;;;;;;;;6193096;23;20111;-93
2023/12/18 01:58:53;;;;;;;72.68;33.83;;;;;;;;;;6194125;23;20007;-95
2023/12/18 02:01:19;;;;;;;71.03;34.45;;;;;;;;;;6193446;23;20009;-94
2023/12/18 02:03:46;;;;;;;79.68;36.53;;;;;;;;;;6193684;23;20012;-95
2023/12/18 02:06:14;;;;;;;90.03;36.97;;;;;;;;;;6220519;23;20023;-93
2023/12/18 02:08:40;;;;;;;83.45;35.83;;;;;;;;;;6193476;23;20005;-94
2023/12/18 02:11:06;;;;;;;84.88;33.40;;;;;;;;;;6194016;23;20039;-93
2023/12/18 02:13:32;;;;;;;79.57;33.97;;;;;;;;;;6193549;23;20051;-93
2023/12/18 02:15:58;;;;;;;77.47;33.70;;;;;;;;;;6194090;23;20058;-92
2023/12/18 02:18:25;;;;;;;66.97;33.65;;;;;;;;;;6194567;23;20083;-94
2023/12/18 02:20:51;;;;;;;70.93;34.55;;;;;;;;;;6193903;23;20446;-94
2023/12/18 02:23:17;;;;;;;83.88;34.80;;;;;;;;;;6193493;23;20418;-95
2023/12/18 02:25:43;;;;;;;55.55;29.70;;;;;;;;;;6194382;23;20008;-92
2023/12/18 02:28:11;;;;;;;102.20;38.33;;;;;;;;;;6193009;23;20016;-93
2023/12/18 02:30:37;;;;;;;56.78;30.85;;;;;;;;;;6193281;23;20001;-93
2023/12/18 02:33:04;;;;;;;63.00;32.75;;;;;;;;;;6219615;23;20009;-93
2023/12/18 02:35:30;;;;;;;69.38;36.47;;;;;;;;;;6193180;23;20005;-94
2023/12/18 02:37:56;;;;;;;65.13;35.22;;;;;;;;;;6194079;23;20032;-92
2023/12/18 02:40:26;;;;;;;78.35;35.17;;;;;;;;;;6201659;23;20076;-91
2023/12/18 02:42:52;;;;;;;75.05;33.03;;;;;;;;;;6210686;23;20005;-94
2023/12/18 02:47:54;;;;;;;97.75;39.45;;;;;;;;;;6206182;23;20051;-93
2023/12/18 02:50:21;;;;;;;81.75;39.40;;;;;;;;;;6194943;23;20445;-95
2023/12/18 02:52:47;;;;;;;78.53;38.65;;;;;;;;;;6193694;23;20005;-93
2023/12/18 02:55:13;;;;;;;106.78;40.00;;;;;;;;;;6194469;23;20001;-94
2023/12/18 02:57:40;;;;;;;101.15;40.85;;;;;;;;;;6195821;23;20439;-94
2023/12/18 03:02:57;;;;;;;103.28;43.72;;;;;;;;;;6164324;23;20452;-93
2023/12/18 03:05:30;;;;;;;121.63;46.83;;;;;;;;;;6200125;23;20034;-93
2023/12/18 03:13:08;;;;;;;120.78;45.97;;;;;;;;;;6166753;23;20055;-94
2023/12/18 03:18:34;;;;;;;79.32;33.33;;;;;;;;;;6216143;22;20474;-93
2023/12/18 03:21:12;;;;;;;88.93;35.95;;;;;;;;;;6207842;23;20051;-94
2023/12/18 03:23:41;;;;;;;74.13;31.27;;;;;;;;;;6234821;23;20013;-92
2023/12/18 03:29:11;;;;;;;67.70;30.52;;;;;;;;;;6197873;22;20024;31
2023/12/18 03:31:37;;;;;;;76.57;32.15;;;;;;;;;;6164012;22;20020;-90
2023/12/18 03:47:39;;;;;;;71.30;29.45;;;;;;;;;;6169056;22;20054;31
2023/12/18 03:53:29;;;;;;;68.55;29.40;;;;;;;;;;6176350;23;20320;31
2023/12/18 04:09:33;;;;;;;75.85;31.88;;;;;;;;;;6198030;22;20004;-94
2023/12/18 04:32:40;;;;;;;68.53;29.42;;;;;;;;;;6162631;22;20051;-90
2023/12/18 06:21:57;;;;;;;136.25;53.50;;;;;;;;;;6185688;22;20475;-92
2023/12/18 06:24:23;;;;;;;306.90;79.25;;;;;;;;;;6162520;23;20009;-93
2023/12/18 06:26:53;;;;;;;114.72;46.50;;;;;;;;;;6161743;23;20143;-94
2023/12/18 06:32:26;;;;;;;329.80;63.95;;;;;;;;;;6188119;23;20035;-93
2023/12/18 06:34:55;;;;;;;339.73;65.32;;;;;;;;;;6161772;23;20020;-94
2023/12/18 06:37:24;;;;;;;231.50;58.38;;;;;;;;;;6162047;23;20063;-94
2023/12/18 06:40:06;;;;;;;444.10;72.57;;;;;;;;;;6162495;23;20124;-94
2023/12/18 06:42:37;;;;;;;236.85;62.15;;;;;;;;;;6161918;23;20031;-95
2023/12/18 06:45:12;;;;;;;203.07;54.38;;;;;;;;;;6170202;23;20005;-95
2023/12/18 06:47:39;;;;;;;285.77;59.80;;;;;;;;;;6161711;23;20100;-95
2023/12/18 06:50:05;;;;;;;353.33;63.85;;;;;;;;;;6162691;23;20383;-94
2023/12/18 06:52:38;;;;;;;298.20;58.95;;;;;;;;;;6157297;23;20013;-95
2023/12/18 06:55:07;;;;;;;265.60;52.17;;;;;;;;;;6162608;23;20016;-94
2023/12/18 06:57:36;;;;;;;291.33;59.78;;;;;;;;;;6169849;23;19990;-93
2023/12/18 07:00:12;;;;;;;470.20;72.55;;;;;;;;;;6188877;23;19989;-93
2023/12/18 07:02:38;;;;;;;128.73;44.00;;;;;;;;;;6174642;23;20009;-94
2023/12/18 07:05:13;;;;;;;127.80;42.72;;;;;;;;;;6161571;23;20091;-95
2023/12/18 07:07:42;;;;;;;249.10;59.13;;;;;;;;;;6161091;23;20017;-94
2023/12/18 07:10:08;;;;;;;264.08;66.03;;;;;;;;;;6161429;23;20005;-95
2023/12/18 07:12:37;;;;;;;304.23;74.45;;;;;;;;;;6161712;23;20012;-93
2023/12/18 07:15:04;;;;;;;220.90;70.53;;;;;;;;;;6161612;23;20493;-94
2023/12/18 07:17:30;;;;;;;138.35;55.30;;;;;;;;;;6154729;23;20012;-93
2023/12/18 07:20:02;;;;;;;265.20;70.10;;;;;;;;;;6161141;23;20008;-94
2023/12/18 07:22:49;;;;;;;342.90;71.00;;;;;;;;;;6162089;23;20440;-94
2023/12/18 07:25:21;;;;;;;406.30;70.00;;;;;;;;;;6161699;23;20247;-93
2023/12/18 07:27:51;;;;;;;350.10;70.78;;;;;;;;;;6161570;23;20013;-94
2023/12/18 07:30:20;;;;;;;103.80;39.40;;;;;;;;;;6161421;23;20001;-95
2023/12/18 07:32:52;;;;;;;111.35;37.75;;;;;;;;;;6161058;23;20052;-95
2023/12/18 07:35:24;;;;;;;551.05;67.38;;;;;;;;;;6161707;23;20023;-96
2023/12/18 07:37:57;;;;;;;157.25;44.70;;;;;;;;;;6161322;23;20001;-95
2023/12/18 07:40:35;;;;;;;76.70;29.17;;;;;;;;;;6160248;23;20088;-93
2023/12/18 07:43:07;;;;;;;127.13;38.45;;;;;;;;;;6161536;23;20032;-95
2023/12/18 07:45:39;;;;;;;72.03;33.53;;;;;;;;;;6163708;23;20005;-94
2023/12/18 07:48:08;;;;;;;74.35;35.05;;;;;;;;;;6188470;23;20075;-96
2023/12/18 07:50:38;;;;;;;94.93;36.47;;;;;;;;;;6163153;23;20012;-94
2023/12/18 07:53:10;;;;;;;95.60;32.20;;;;;;;;;;6161921;23;20009;-94
2023/12/18 07:55:39;;;;;;;62.10;30.88;;;;;;;;;;6161614;23;20009;-93
2023/12/18 07:58:08;;;;;;;89.85;32.60;;;;;;;;;;6161178;23;20505;-95
2023/12/18 08:00:34;;;;;;;128.63;38.17;;;;;;;;;;6162413;23;20009;-94
2023/12/18 08:03:03;;;;;;;71.40;30.30;;;;;;;;;;6161309;23;20001;-92
2023/12/18 08:05:32;;;;;;;55.72;30.60;;;;;;;;;;6162181;23;20009;-93
2023/12/18 08:07:58;;;;;;;90.15;37.30;;;;;;;;;;6161904;23;20013;-91
2023/12/18 08:10:25;;;;;;;61.55;30.23;;;;;;;;;;6162073;23;20422;-93
2023/12/18 08:12:51;;;;;;;59.63;30.25;;;;;;;;;;6163254;23;20032;-92
2023/12/18 08:15:17;;;;;;;73.18;32.45;;;;;;;;;;6161348;23;20001;-92
2023/12/18 08:17:52;;;;;;;135.32;34.00;;;;;;;;;;6161293;23;20012;-93
2023/12/18 08:20:24;;;;;;;52.10;30.02;;;;;;;;;;6161352;23;20005;-93
2023/12/18 08:22:56;;;;;;;98.32;33.83;;;;;;;;;;6161064;23;20021;-93
2023/12/18 08:25:25;;;;;;;58.75;29.83;;;;;;;;;;6161607;23;20009;-94
2023/12/18 08:27:51;;;;;;;97.15;30.10;;;;;;;;;;6160591;23;20028;-92
2023/12/18 08:30:21;;;;;;;210.77;44.42;;;;;;;;;;6161103;23;20006;-94
2023/12/18 08:32:50;;;;;;;167.00;35.13;;;;;;;;;;6158640;23;20337;-93
2023/12/18 08:38:11;;;;;;;170.50;41.75;;;;;;;;;;6142804;23;20005;-94
2023/12/18 08:40:37;;;;;;;73.63;27.55;;;;;;;;;;6177147;23;19997;-92
2023/12/18 08:43:03;;;;;;;56.67;26.77;;;;;;;;;;6187717;23;20020;-92
2023/12/18 08:45:30;;;;;;;65.57;26.55;;;;;;;;;;6169829;23;20009;-94
2023/12/18 08:48:05;;;;;;;54.35;26.30;;;;;;;;;;6160684;23;20009;-93
2023/12/18 08:50:31;;;;;;;109.53;41.05;;;;;;;;;;6160681;23;20388;-92
2023/12/18 08:52:57;;;;;;;61.97;30.23;;;;;;;;;;6160831;23;20010;-95
2023/12/18 08:55:29;;;;;;;47.72;24.55;;;;;;;;;;6160568;23;20080;-95
2023/12/18 08:57:56;;;;;;;286.45;44.40;;;;;;;;;;6161137;23;20005;-92
2023/12/18 09:00:22;;;;;;;60.58;26.27;;;;;;;;;;6160325;23;20093;-92
2023/12/18 09:03:06;;;;;;;60.67;25.98;;;;;;;;;;6159960;23;20088;-92
2023/12/18 09:05:38;;;;;;;83.72;23.92;;;;;;;;;;6160676;23;20005;-94
2023/12/18 09:08:24;;;;;;;69.93;27.40;;;;;;;;;;6161821;23;20446;-96
2023/12/18 09:10:53;;;;;;;102.43;26.30;;;;;;;;;;6162507;23;20055;-95
2023/12/18 09:13:22;;;;;;;114.05;28.00;;;;;;;;;;6163053;23;20043;-96
2023/12/18 09:15:51;;;;;;;81.38;25.35;;;;;;;;;;6162896;23;20006;-96
2023/12/18 09:18:18;;;;;;;80.97;25.23;;;;;;;;;;6162076;23;20005;-96
2023/12/18 09:20:44;;;;;;;116.18;28.98;;;;;;;;;;6162110;23;20063;-96
2023/12/18 09:23:30;;;;;;;86.50;25.80;;;;;;;;;;6161768;23;20034;-95
2023/12/18 09:26:13;;;;;;;130.85;27.05;;;;;;;;;;6162056;23;20036;-96
2023/12/18 09:31:52;;;;;;;103.88;26.52;;;;;;;;;;6161441;23;20093;-96
2023/12/18 09:34:30;;;;;;;42.08;21.75;;;;;;;;;;6133504;23;20040;-96
2023/12/18 09:36:59;;;;;;;75.53;23.73;;;;;;;;;;6160760;23;20016;-96
2023/12/18 09:39:26;;;;;;;44.85;22.85;;;;;;;;;;6132851;23;20010;-96
2023/12/18 09:42:01;;;;;;;86.72;23.92;;;;;;;;;;6133314;23;20041;-95
2023/12/18 09:44:37;;;;;;;237.30;34.90;;;;;;;;;;6133816;23;20034;-95
2023/12/18 09:47:07;;;;;;;37.03;19.35;;;;;;;;;;6134612;23;20439;-95
2023/12/18 09:49:35;;;;;;;48.75;21.63;;;;;;;;;;6133492;23;20002;-96
2023/12/18 09:52:15;;;;;;;32.97;17.50;;;;;;;;;;6134858;23;20009;-95
2023/12/18 09:55:13;;;;;;;29.92;16.65;;;;;;;;;;6161894;23;20002;-95
2023/12/18 09:57:38;;;;;;;27.55;15.88;;;;;;;;;;6160468;23;20010;-95
2023/12/18 10:00:06;;;;;;;41.00;17.13;;;;;;;;;;6133390;23;20009;-95
2023/12/18 10:02:49;;;;;;;49.92;17.38;;;;;;;;;;6133547;23;20096;-96
2023/12/18 10:05:16;;;;;;;40.30;14.98;;;;;;;;;;6132507;23;20032;-96
2023/12/18 10:07:43;;;;;;;157.85;25.00;;;;;;;;;;6157760;23;20021;-96
2023/12/18 10:10:16;;;;;;;28.85;15.68;;;;;;;;;;6132252;23;20006;-96
2023/12/18 10:12:42;;;;;;;;;;;;;;;;;;6133256;23;20005;-96
2023/12/18 10:15:26;;;;;;;21.80;13.85;;;;;;;;;;6132576;23;19947;-96
2023/12/18 10:17:52;;;;;;;;;;;;;;;;;;6133644;23;20019;-94
2023/12/18 10:20:18;;;;;;;50.20;14.20;;;;;;;;;;6132104;23;20330;-95
2023/12/18 10:22:44;;;;;;;34.30;15.40;;;;;;;;;;6139892;23;20024;-94
2023/12/18 10:25:12;;;;;;;63.72;14.43;;;;;;;;;;6168404;23;20001;-94
2023/12/18 10:27:38;;;;;;;25.42;12.88;;;;;;;;;;6179188;23;20040;-95
2023/12/18 10:30:06;;;;;;;25.80;14.23;;;;;;;;;;6161828;23;20051;-95
2023/12/18 10:32:35;;;;;;;77.43;16.77;;;;;;;;;;6161313;23;20147;-94
2023/12/18 10:35:02;;;;;;;33.40;15.35;;;;;;;;;;6162334;23;20032;-96
2023/12/18 10:37:30;;;;;;;27.10;13.20;;;;;;;;;;6163250;23;20473;-95
2023/12/18 10:40:00;;;;;;;96.50;18.27;;;;;;;;;;6161775;23;20087;-95
2023/12/18 10:42:37;;;;;;;22.02;13.88;;;;;;;;;;6162811;23;20036;-95
2023/12/18 10:45:07;;;;;;;37.28;15.77;;;;;;;;;;6161927;23;20016;-93
2023/12/18 10:47:36;;;;;;;45.25;15.30;;;;;;;;;;6161930;23;20017;-95
2023/12/18 10:50:04;;;;;;;68.22;15.38;;;;;;;;;;6162396;23;20140;-95
2023/12/18 10:52:33;;;;;;;28.40;13.93;;;;;;;;;;6163336;23;20005;-96
2023/12/18 10:55:00;;;;;;;46.10;13.95;;;;;;;;;;6163485;23;20005;-95
2023/12/18 10:57:27;;;;;;;26.83;12.23;;;;;;;;;;6163900;23;20009;-95
2023/12/18 10:59:53;;;;;;;24.60;12.75;;;;;;;;;;6161827;23;20005;-95
2023/12/18 11:02:23;;;;;;;34.65;14.77;;;;;;;;;;6162927;23;20009;-95
2023/12/18 11:05:01;;;;;;;73.38;20.73;;;;;;;;;;6163229;23;20008;-96
2023/12/18 11:07:27;;;;;;;42.42;15.48;;;;;;;;;;6162348;23;20017;-92
2023/12/18 11:10:02;;;;;;;28.95;12.90;;;;;;;;;;6162059;23;20477;-93
2023/12/18 11:12:29;;;;;;;72.25;18.42;;;;;;;;;;6162413;23;20011;-95
2023/12/18 11:15:01;;;;;;;33.35;14.02;;;;;;;;;;6162043;23;20001;-95
2023/12/18 11:17:37;;;;;;;28.15;13.15;;;;;;;;;;6162454;23;20434;-93
2023/12/18 11:20:26;;;;;;;20.00;13.18;;;;;;;;;;6162754;23;20028;-90
2023/12/18 11:22:58;;;;;;;28.85;13.98;;;;;;;;;;6149617;23;20104;-94
2023/12/18 11:25:44;;;;;;;32.97;14.43;;;;;;;;;;6161183;23;20009;-95
2023/12/18 11:28:13;;;;;;;21.15;12.82;;;;;;;;;;6160275;23;20013;-93
2023/12/18 11:30:43;;;;;;;34.97;14.43;;;;;;;;;;6162254;23;20009;-92
2023/12/18 11:33:10;;;;;;;49.92;15.40;;;;;;;;;;6162617;23;20518;-94
2023/12/18 11:35:46;;;;;;;26.13;13.43;;;;;;;;;;6161738;23;20009;-94
2023/12/18 11:38:16;;;;;;;53.33;14.13;;;;;;;;;;6161794;23;20461;-94
2023/12/18 11:40:52;;;;;;;20.48;12.73;;;;;;;;;;6162327;23;20008;-94
2023/12/18 11:43:38;;;;;;;29.52;12.93;;;;;;;;;;6161277;23;20025;-94
2023/12/18 11:46:08;;;;;;;45.42;16.90;;;;;;;;;;6165245;23;20009;-94
2023/12/18 11:48:56;;;;;;;;;;;;;;;;;;;;;
2023/12/18 11:51:34;;;;;;;38.90;16.20;;;;;;;;;;6200642;23;20048;-95
2023/12/18 11:54:06;;;;;;;31.05;15.80;;;;;;;;;;6132410;23;20064;-93
2023/12/18 11:56:45;;;;;;;32.80;15.20;;;;;;;;;;6167723;23;20054;-94
2023/12/18 11:59:19;;;;;;;44.13;16.40;;;;;;;;;;6166874;23;20016;-96
2023/12/18 12:01:47;;;;;;;133.77;22.30;;;;;;;;;;6170731;23;20008;-95
2023/12/18 12:04:35;;;;;;;25.58;14.90;;;;;;;;;;6169542;23;20069;-96
2023/12/18 12:07:01;;;;;;;81.75;21.23;;;;;;;;;;6184756;23;20019;-92
2023/12/18 12:09:53;;;;;;;106.88;20.48;;;;;;;;;;6167845;23;20033;-95
2023/12/18 12:12:20;;;;;;;44.33;18.17;;;;;;;;;;6175095;23;20341;-93
2023/12/18 12:14:49;;;;;;;35.90;17.23;;;;;;;;;;6190044;23;20001;-95
2023/12/18 12:17:27;;;;;;;40.03;19.05;;;;;;;;;;6192164;23;20036;-95
2023/12/18 12:19:53;;;;;;;39.65;16.48;;;;;;;;;;6189553;23;20001;-95
2023/12/18 12:22:40;;;;;;;51.45;19.80;;;;;;;;;;6158121;23;20064;-95
2023/12/18 12:25:14;;;;;;;39.00;20.23;;;;;;;;;;6160030;23;20522;-95
2023/12/18 12:27:46;;;;;;;57.47;18.63;;;;;;;;;;6136063;23;20014;-96
2023/12/18 12:30:37;;;;;;;127.88;22.25;;;;;;;;;;6142017;23;20864;-96
2023/12/18 12:33:12;;;;;;;30.17;16.20;;;;;;;;;;6219490;23;20008;-94
2023/12/18 12:35:38;;;;;;;30.52;15.25;;;;;;;;;;6218902;23;20032;-95
2023/12/18 12:38:05;;;;;;;71.05;18.83;;;;;;;;;;6218428;23;20067;-95
2023/12/18 12:40:48;;;;;;;29.05;15.18;;;;;;;;;;6219792;23;20001;-95
2023/12/18 12:43:20;;;;;;;81.95;17.30;;;;;;;;;;6218455;23;20004;-96
2023/12/18 12:45:57;;;;;;;32.28;14.60;;;;;;;;;;6217538;23;20005;-93
2023/12/18 12:48:28;;;;;;;26.85;14.38;;;;;;;;;;6219009;23;20048;-96
2023/12/18 12:50:57;;;;;;;32.70;16.17;;;;;;;;;;6218931;23;20608;-95
2023/12/18 12:53:33;;;;;;;28.17;13.63;;;;;;;;;;6219030;23;20008;-95
2023/12/18 12:56:03;;;;;;;30.88;12.80;;;;;;;;;;6218222;23;20024;-94
2023/12/18 12:58:33;;;;;;;108.72;17.55;;;;;;;;;;6198387;23;20008;-94
2023/12/18 13:01:06;;;;;;;28.52;13.65;;;;;;;;;;6223293;23;20001;-96
2023/12/18 13:03:35;;;;;;;44.75;15.75;;;;;;;;;;6223346;23;20005;-95
2023/12/18 13:06:01;;;;;;;35.33;15.68;;;;;;;;;;6221651;23;20005;-94
2023/12/18 13:08:28;;;;;;;57.70;16.23;;;;;;;;;;6220908;23;20004;-95
2023/12/18 13:11:04;;;;;;;32.33;14.27;;;;;;;;;;6221805;23;20009;-95
2023/12/18 13:13:37;;;;;;;83.90;18.58;;;;;;;;;;6222406;23;20005;-95
2023/12/18 13:16:33;;;;;;;25.93;15.77;;;;;;;;;;6223461;23;20063;-96
2023/12/18 13:18:59;;;;;;;29.30;17.90;;;;;;;;;;6223019;23;20234;-96
2023/12/18 13:21:31;;;;;;;55.10;17.70;;;;;;;;;;6221735;23;20339;-96
2023/12/18 13:24:06;;;;;;;43.95;18.75;;;;;;;;;;6218997;23;20009;-94
2023/12/18 13:26:35;;;;;;;32.92;17.13;;;;;;;;;;6220242;23;20008;-95
2023/12/18 13:29:01;;;;;;;40.80;18.67;;;;;;;;;;6221063;23;20083;-96
2023/12/18 13:31:35;;;;;;;40.50;18.83;;;;;;;;;;6219599;23;20338;-95
2023/12/18 13:34:04;;;;;;;37.10;19.92;;;;;;;;;;6231496;23;19993;-95
2023/12/18 13:39:11;;;;;;;25.00;15.00;;;;;;;;;;6197638;23;20005;-95
2023/12/18 13:41:47;;;;;;;34.38;17.25;;;;;;;;;;6190505;23;20500;-95
2023/12/18 13:44:14;;;;;;;31.15;17.35;;;;;;;;;;6191411;23;19997;-95
2023/12/18 13:46:47;;;;;;;53.33;20.70;;;;;;;;;;6190182;23;20084;-95
2023/12/18 13:49:16;;;;;;;60.28;19.63;;;;;;;;;;6188613;23;20320;-94
2023/12/18 13:51:43;;;;;;;51.20;20.30;;;;;;;;;;6188709;23;20382;-94
2023/12/18 13:57:22;;;;;;;37.03;17.02;;;;;;;;;;6191298;23;20465;-92
2023/12/18 13:59:48;;;;;;;64.32;22.10;;;;;;;;;;6188126;23;20005;-94
2023/12/18 14:02:26;;;;;;;48.17;20.85;;;;;;;;;;6187110;23;20529;-94
2023/12/18 14:04:55;;;;;;;38.65;19.83;;;;;;;;;;6164302;23;20015;-95
2023/12/18 14:07:21;;;;;;;52.20;20.88;;;;;;;;;;6163414;23;20013;-95
2023/12/18 14:09:50;;;;;;;32.17;18.25;;;;;;;;;;6128127;23;20372;-91
2023/12/18 14:12:20;;;;;;;75.82;23.60;;;;;;;;;;6127985;23;20469;-94
2023/12/18 14:14:49;;;;;;;78.13;24.00;;;;;;;;;;6129718;23;20055;-95
2023/12/18 14:17:28;;;;;;;65.55;24.10;;;;;;;;;;6180513;22;20024;-96
2023/12/18 14:20:03;;;;;;;;;;;;;;;;;;6250832;22;20484;-94
2023/12/18 14:22:36;;;;;;;36.13;19.90;;;;;;;;;;6276115;22;19919;-96
2023/12/18 14:32:51;;;;;;;47.78;22.38;;;;;;;;;;6196335;23;20021;-94
2023/12/18 14:35:24;;;;;;;56.85;23.52;;;;;;;;;;6192849;23;20015;-94
2023/12/18 14:37:50;;;;;;;75.53;25.92;;;;;;;;;;6166760;23;20005;-95
2023/12/18 14:40:19;;;;;;;74.07;24.75;;;;;;;;;;6170679;23;20338;-96
2023/12/18 14:42:46;;;;;;;75.38;29.50;;;;;;;;;;6169857;23;20330;-95
2023/12/18 14:45:12;;;;;;;46.00;20.33;;;;;;;;;;6169134;23;20005;-95
2023/12/18 14:47:46;;;;;;;82.40;25.17;;;;;;;;;;6165243;23;20017;-96
2023/12/18 14:50:12;;;;;;;47.88;20.70;;;;;;;;;;6163042;23;20001;-96
2023/12/18 14:52:47;;;;;;;111.75;25.80;;;;;;;;;;6166976;23;20009;-94
2023/12/18 14:55:14;;;;;;;41.47;20.20;;;;;;;;;;6165491;23;20011;-96
2023/12/18 14:57:40;;;;;;;69.32;24.77;;;;;;;;;;6169124;23;20009;-96
2023/12/18 15:00:25;;;;;;;89.18;25.10;;;;;;;;;;6193235;23;20009;-96
2023/12/18 15:03:10;;;;;;;74.95;25.17;;;;;;;;;;6168894;23;20012;-95
2023/12/18 15:08:47;;;;;;;48.15;20.92;;;;;;;;;;6190586;23;20061;-96
2023/12/18 15:14:20;;;;;;;189.57;32.65;;;;;;;;;;6181494;23;20426;-96
2023/12/18 15:17:00;;;;;;;166.70;30.20;;;;;;;;;;6205713;22;20016;-96
2023/12/18 15:22:31;;;;;;;85.18;25.00;;;;;;;;;;6157266;23;20024;-96
2023/12/18 15:25:00;;;;;;;55.88;23.58;;;;;;;;;;6131655;23;20001;-96
2023/12/18 15:28:01;;;;;;;87.53;26.67;;;;;;;;;;6132633;23;20029;-96
2023/12/18 15:30:27;;;;;;;52.03;23.02;;;;;;;;;;6053780;23;20014;-94
2023/12/18 15:32:56;;;;;;;104.28;27.13;;;;;;;;;;6090245;23;20036;-94
2023/12/18 15:35:22;;;;;;;66.60;25.25;;;;;;;;;;6102005;23;20335;-96
2023/12/18 15:37:51;;;;;;;45.72;22.48;;;;;;;;;;6107214;23;20066;-96
2023/12/18 15:40:30;;;;;;;39.03;20.08;;;;;;;;;;6205961;23;20004;-95
2023/12/18 15:43:00;;;;;;;53.83;23.42;;;;;;;;;;6217412;23;20024;-94
2023/12/18 15:45:43;;;;;;;;;;;;;;;;;;;;;
2023/12/18 15:48:12;;;;;;;;;;;;;;;;;;6219171;23;20188;-95
2023/12/18 15:50:39;;;;;;;83.65;29.25;;;;;;;;;;6241557;23;19906;-96
2023/12/18 15:53:05;;;;;;;83.65;27.30;;;;;;;;;;6216602;23;20088;-95
2023/12/18 15:55:31;;;;;;;43.65;19.77;;;;;;;;;;6216082;23;20433;-95
2023/12/18 15:57:57;;;;;;;63.80;19.90;;;;;;;;;;6217511;23;20004;-95
2023/12/18 16:00:24;;;;;;;88.00;23.35;;;;;;;;;;6216124;23;20001;-94
2023/12/18 16:02:53;;;;;;;39.10;18.35;;;;;;;;;;6216923;23;20011;-96
2023/12/18 16:05:19;;;;;;;37.33;18.65;;;;;;;;;;6220463;23;20024;-96
2023/12/18 16:07:45;;;;;;;31.20;16.15;;;;;;;;;;6219502;23;20019;-96
2023/12/18 16:10:15;;;;;;;46.40;16.98;;;;;;;;;;6217637;23;20417;-96
2023/12/18 16:12:41;;;;;;;60.60;18.92;;;;;;;;;;6218044;23;20005;-95
2023/12/18 16:15:10;;;;;;;24.77;15.48;;;;;;;;;;6216441;23;20005;-95
2023/12/18 16:17:37;;;;;;;29.50;16.70;;;;;;;;;;6216089;23;20021;-94
2023/12/18 16:20:03;;;;;;;29.77;19.33;;;;;;;;;;6215745;23;20004;-95
2023/12/18 16:22:29;;;;;;;24.17;18.05;;;;;;;;;;6216829;23;20012;-94
2023/12/18 16:24:55;;;;;;;56.78;23.02;;;;;;;;;;6216290;23;20000;-93
2023/12/18 16:27:21;;;;;;;100.25;28.55;;;;;;;;;;6217002;23;20043;-96
2023/12/18 16:29:49;;;;;;;60.15;24.83;;;;;;;;;;6216615;23;20008;-95
2023/12/18 16:32:15;;;;;;;61.83;26.63;;;;;;;;;;6215409;23;20095;-95
2023/12/18 16:34:49;;;;;;;133.38;30.50;;;;;;;;;;6216201;23;20000;-95
2023/12/18 16:37:17;;;;;;;;;;;;;;;;;;6216087;23;20087;-94
2023/12/18 16:39:49;;;;;;;43.45;23.67;;;;;;;;;;6241349;23;19900;-93
2023/12/18 16:42:15;;;;;;;45.85;26.33;;;;;;;;;;6216080;23;20009;-94
2023/12/18 16:44:48;;;;;;;28.05;18.67;;;;;;;;;;6215424;23;20001;-93
2023/12/18 16:47:16;;;;;;;46.05;21.67;;;;;;;;;;6215921;23;20095;-94
2023/12/18 16:49:49;;;;;;;26.00;21.35;;;;;;;;;;6216517;23;20007;-94
2023/12/18 16:52:16;;;;;;;28.00;19.20;;;;;;;;;;6217012;23;20035;-95
2023/12/18 16:54:42;;;;;;;37.00;21.67;;;;;;;;;;6221041;23;20005;-96
2023/12/18 16:57:09;;;;;;;26.25;18.50;;;;;;;;;;6231232;23;20027;-93
2023/12/18 16:59:35;;;;;;;40.47;24.73;;;;;;;;;;6217530;23;20001;-94
2023/12/18 17:02:01;;;;;;;33.90;23.30;;;;;;;;;;6226101;23;20001;-94
2023/12/18 17:04:37;;;;;;;29.00;21.00;;;;;;;;;;6218193;23;20000;-94
2023/12/18 17:07:03;;;;;;;25.58;17.83;;;;;;;;;;6210715;22;20298;-93
2023/12/18 17:09:41;;;;;;;57.75;23.13;;;;;;;;;;6192111;23;20040;-94
2023/12/18 17:12:14;;;;;;;35.50;18.10;;;;;;;;;;6191969;23;20008;-93
2023/12/18 17:14:47;;;;;;;30.63;19.52;;;;;;;;;;6193476;23;20060;-96
2023/12/18 17:17:29;;;;;;;43.47;22.38;;;;;;;;;;6190303;23;20333;-95
2023/12/18 17:19:58;;;;;;;35.55;21.08;;;;;;;;;;6191888;23;20000;-95
2023/12/18 17:22:24;;;;;;;38.88;22.15;;;;;;;;;;6189708;23;20008;-95
2023/12/18 17:24:52;;;;;;;56.50;27.63;;;;;;;;;;6190506;23;20001;-94
2023/12/18 17:27:19;;;;;;;40.58;25.02;;;;;;;;;;6198520;23;20017;-94
2023/12/18 17:29:51;;;;;;;64.75;29.80;;;;;;;;;;6189685;23;20036;-95
2023/12/18 17:38:27;;;;;;;42.63;21.70;;;;;;;;;;6216515;23;20015;-94
2023/12/18 17:40:56;;;;;;;68.22;26.80;;;;;;;;;;6190524;23;20005;-94
2023/12/18 17:43:26;;;;;;;49.92;27.65;;;;;;;;;;6190064;23;20000;-94
2023/12/18 17:45:57;;;;;;;46.85;26.13;;;;;;;;;;6190199;23;20047;-93
2023/12/18 17:48:23;;;;;;;41.53;25.10;;;;;;;;;;6190184;23;20020;-93
2023/12/18 17:50:54;;;;;;;58.25;29.90;;;;;;;;;;6190503;23;20004;-96
2023/12/18 17:53:32;;;;;;;74.20;31.05;;;;;;;;;;6192108;23;20005;-94
2023/12/18 17:56:01;;;;;;;41.05;25.27;;;;;;;;;;6192621;23;20012;-92
2023/12/18 17:58:33;;;;;;;64.28;26.98;;;;;;;;;;6195941;23;20501;-95
2023/12/18 18:01:03;;;;;;;39.28;25.15;;;;;;;;;;6193639;23;20063;-92
2023/12/18 18:03:34;;;;;;;204.70;37.22;;;;;;;;;;6196447;23;20011;-95
2023/12/18 18:06:06;;;;;;;59.55;31.85;;;;;;;;;;6197254;23;20013;-93
2023/12/18 18:08:37;;;;;;;145.13;47.95;;;;;;;;;;6211990;23;20059;-94